Time;durP1;ratioP1;P1;durP2;ratioP2;P2;SDS_P1;SDS_P2;PMS_P1;PMS_P2;Temp;Humidity;BMP_temperature;BMP_pressure;BME280_temperature;BME280_humidity;BME280_pressure;Samples;Min_cycle;Max_cycle;Signal;HPM_P1;HPM_P2
2023/04/01 00:01:25;;;;;;;6.63;1.87;;;;;;;9.80;100.00;97268.72;5030125;28;20202;-81
2023/04/01 00:03:53;;;;;;;7.00;2.03;;;;;;;9.83;100.00;97260.50;5011571;28;20249;-82
2023/04/01 00:06:23;;;;;;;11.17;2.47;;;;;;;9.73;100.00;97260.50;4969329;28;20305;-82
2023/04/01 00:08:53;;;;;;;9.00;1.83;;;;;;;9.83;100.00;97271.06;4965053;28;20207;-81
2023/04/01 00:11:22;;;;;;;5.90;2.10;;;;;;;9.76;100.00;97277.91;4968996;28;20216;-82
2023/04/01 00:13:52;;;;;;;6.67;2.00;;;;;;;9.79;100.00;97282.09;4967404;28;20207;-81
2023/04/01 00:16:20;;;;;;;5.57;2.07;;;;;;;9.81;100.00;97278.31;5016455;28;20207;-81
2023/04/01 00:18:54;;;;;;;5.80;2.40;;;;;;;9.72;100.00;97276.50;4960142;28;20201;-81
2023/04/01 00:21:23;;;;;;;7.00;1.83;;;;;;;9.75;100.00;97274.44;4951860;28;20204;-82
2023/04/01 00:23:53;;;;;;;7.30;2.10;;;;;;;9.73;100.00;97270.25;4947815;28;20209;-81
2023/04/01 00:26:22;;;;;;;5.47;1.93;;;;;;;9.76;100.00;97275.28;4983362;28;20225;-82
2023/04/01 00:28:51;;;;;;;8.07;2.40;;;;;;;9.80;100.00;97271.38;5001411;28;20195;-81
2023/04/01 00:31:20;;;;;;;8.43;2.20;;;;;;;9.71;100.00;97266.91;5016104;28;20653;-81
2023/04/01 00:33:49;;;;;;;7.50;1.90;;;;;;;9.73;100.00;97275.53;4999843;28;20218;-81
2023/04/01 00:36:19;;;;;;;6.40;2.17;;;;;;;9.76;100.00;97277.91;5011613;28;20197;-82
2023/04/01 00:38:48;;;;;;;5.97;1.90;;;;;;;9.74;100.00;97277.19;5054575;27;20671;-82
2023/04/01 00:41:23;;;;;;;4.83;1.70;;;;;;;9.72;100.00;97272.06;5041578;28;20225;-82
2023/04/01 00:43:53;;;;;;;6.50;2.47;;;;;;;9.78;100.00;97280.41;5046798;28;20196;-81
2023/04/01 00:46:21;;;;;;;7.23;1.80;;;;;;;9.65;100.00;97278.91;5048508;28;20205;-81
2023/04/01 00:48:52;;;;;;;7.30;2.20;;;;;;;9.63;100.00;97277.34;5048116;28;20193;-81
2023/04/01 00:51:23;;;;;;;7.10;2.10;;;;;;;9.68;100.00;97275.13;5052026;28;20234;-81
2023/04/01 00:53:54;;;;;;;5.20;2.20;;;;;;;9.78;100.00;97283.91;5130751;27;20216;-81
2023/04/01 00:56:28;;;;;;;6.20;1.90;;;;;;;9.71;100.00;97285.41;5129586;27;20197;-81
2023/04/01 00:59:02;;;;;;;5.47;2.30;;;;;;;9.71;100.00;97285.41;5129032;27;20221;-81
2023/04/01 01:01:31;;;;;;;10.43;2.10;;;;;;;9.76;100.00;97270.00;5129408;27;20212;-81
2023/04/01 01:04:02;;;;;;;7.40;2.20;;;;;;;9.72;100.00;97276.50;5134432;27;20195;-81
2023/04/01 01:06:44;;;;;;;6.97;2.30;;;;;;;9.72;100.00;97274.69;5129338;27;20208;-81
2023/04/01 01:09:27;;;;;;;5.07;1.97;;;;;;;9.78;100.00;97277.78;5122715;27;20250;-81
2023/04/01 01:12:06;;;;;;;5.50;2.23;;;;;;;9.71;100.00;97267.75;5093130;27;20298;-82
2023/04/01 01:14:49;;;;;;;7.30;2.13;;;;;;;9.71;100.00;97267.75;5051751;28;20204;-82
2023/04/01 01:17:31;;;;;;;5.60;2.30;;;;;;;9.68;100.00;97269.84;5051908;28;20249;-82
2023/04/01 01:20:38;;;;;;;6.23;2.33;;;;;;;9.69;100.00;97274.16;5049063;28;20193;-81
2023/04/01 01:23:44;;;;;;;6.87;2.00;;;;;;;9.57;100.00;97275.28;5049096;28;20201;-81
2023/04/01 01:26:43;;;;;;;8.73;1.90;;;;;;;9.67;100.00;97269.00;5040642;28;20200;-82
2023/04/01 01:29:51;;;;;;;6.93;2.10;;;;;;;9.72;100.00;97264.13;5051616;28;20205;-82
2023/04/01 01:32:55;;;;;;;6.43;1.83;;;;;;;9.59;100.00;97270.69;5051744;28;20201;-82
2023/04/01 01:35:32;;;;;;;6.30;1.73;;;;;;;9.64;100.00;97263.97;5030651;28;20200;-82
2023/04/01 01:38:04;;;;;;;6.50;2.27;;;;;;;9.60;100.00;97261.78;5050132;28;20685;-82
2023/04/01 01:40:36;;;;;;;5.47;2.03;;;;;;;9.55;100.00;97263.97;5030758;28;20225;-82
2023/04/01 01:43:08;;;;;;;7.73;1.97;;;;;;;9.52;100.00;97257.19;5046361;28;20209;-81
2023/04/01 01:45:41;;;;;;;13.07;2.53;;;;;;;9.46;100.00;97258.56;5044659;28;20316;-81
2023/04/01 01:48:12;;;;;;;9.20;2.50;;;;;;;9.53;100.00;97258.00;5051133;28;20336;-81
2023/04/01 01:50:45;;;;;;;8.07;1.77;;;;;;;9.56;100.00;97266.50;5056254;28;20254;-81
2023/04/01 01:53:14;;;;;;;4.53;1.57;;;;;;;9.57;100.00;97256.78;5053086;28;20250;-82
2023/04/01 01:55:45;;;;;;;5.80;1.80;;;;;;;9.61;100.00;97252.88;5049898;28;20209;-81
2023/04/01 01:58:17;;;;;;;5.07;1.93;;;;;;;9.63;100.00;97264.13;5050897;28;20201;-82
2023/04/01 02:00:51;;;;;;;3.47;1.60;;;;;;;9.57;100.00;97257.59;5048321;28;20205;-81
2023/04/01 02:03:22;;;;;;;7.20;1.57;;;;;;;9.64;100.00;97263.97;5051134;28;20230;-81
2023/04/01 02:05:55;;;;;;;5.57;1.80;;;;;;;9.56;100.00;97250.66;5053767;28;20197;-81
2023/04/01 02:08:27;;;;;;;7.53;1.50;;;;;;;9.53;100.00;97258.00;5044917;28;20221;-81
2023/04/01 02:11:00;;;;;;;4.13;1.53;;;;;;;9.55;100.00;97248.13;5092139;28;20188;-81
2023/04/01 02:13:35;;;;;;;7.50;1.83;;;;;;;9.57;100.00;97262.06;5087210;28;20348;-81
2023/04/01 02:16:12;;;;;;;6.43;1.80;;;;;;;9.60;100.00;97259.13;5089724;28;20290;-81
2023/04/01 02:18:44;;;;;;;3.93;1.40;;;;;;;9.52;100.00;97264.28;5086987;28;20264;-81
2023/04/01 02:21:18;;;;;;;5.87;1.30;;;;;;;9.51;100.00;97268.72;5090455;28;20201;-81
2023/04/01 02:23:47;;;;;;;9.07;1.40;;;;;;;9.51;100.00;97262.59;5101274;28;20200;-81
2023/04/01 02:26:18;;;;;;;4.70;1.20;;;;;;;9.51;100.00;97266.06;5089466;28;20195;-80
2023/04/01 02:28:47;;;;;;;4.67;1.27;;;;;;;9.52;100.00;97264.28;5090898;28;20215;-80
2023/04/01 02:31:16;;;;;;;3.93;1.10;;;;;;;9.59;100.00;97257.47;5087924;28;20751;-81
2023/04/01 02:33:45;;;;;;;4.23;1.20;;;;;;;9.45;100.00;97267.44;5091885;28;20199;-81
2023/04/01 02:36:17;;;;;;;5.77;1.30;;;;;;;9.43;100.00;97272.03;5054082;28;20196;-81
2023/04/01 02:38:47;;;;;;;2.80;1.17;;;;;;;9.48;100.00;97263.72;5047589;28;20197;-81
2023/04/01 02:41:15;;;;;;;5.10;1.10;;;;;;;9.44;100.00;97263.16;5109597;27;20732;-81
2023/04/01 02:43:44;;;;;;;4.63;1.20;;;;;;;9.45;100.00;97258.69;5046138;28;20199;-80
2023/04/01 02:46:12;;;;;;;5.20;1.10;;;;;;;9.44;100.00;97267.59;5047931;28;20205;-82
2023/04/01 02:48:41;;;;;;;3.20;1.03;;;;;;;9.51;100.00;97259.97;5060230;27;20743;-81
2023/04/01 02:51:09;;;;;;;3.97;1.20;;;;;;;9.53;100.00;97252.72;5050263;28;20196;-81
2023/04/01 02:53:39;;;;;;;5.93;1.43;;;;;;;9.50;100.00;97258.28;5047948;28;20201;-81
2023/04/01 02:56:08;;;;;;;4.13;1.43;;;;;;;9.43;100.00;97261.47;5050202;28;20266;-81
2023/04/01 02:58:36;;;;;;;3.83;1.03;;;;;;;9.49;100.00;97254.00;5047466;28;20242;-82
2023/04/01 03:01:04;;;;;;;3.30;1.30;;;;;;;9.40;100.00;97261.75;5111173;27;20209;-81
2023/04/01 03:03:33;;;;;;;6.33;1.30;;;;;;;9.39;100.00;97261.91;5050416;28;20213;-81
2023/04/01 03:06:06;;;;;;;4.23;1.30;;;;;;;9.39;100.00;97256.63;5049026;28;20194;-81
2023/04/01 03:08:35;;;;;;;5.00;1.47;;;;;;;9.45;100.00;97261.34;5047359;28;20224;-81
2023/04/01 03:11:08;;;;;;;5.80;1.30;;;;;;;9.44;100.00;97254.38;5049665;28;20193;-81
2023/04/01 03:13:36;;;;;;;4.43;1.40;;;;;;;9.36;100.00;97260.38;5048752;28;20193;-81
2023/04/01 03:16:05;;;;;;;4.27;1.50;;;;;;;9.29;100.00;97261.06;5050183;28;20231;-81
2023/04/01 03:18:33;;;;;;;3.93;1.30;;;;;;;9.33;100.00;97263.28;5044127;27;20200;-82
2023/04/01 03:21:14;;;;;;;4.20;1.57;;;;;;;9.32;100.00;97266.06;5054608;27;20209;-81
2023/04/01 03:23:42;;;;;;;3.10;1.50;;;;;;;9.25;100.00;97270.22;5047660;28;20201;-81
2023/04/01 03:26:16;;;;;;;4.20;1.60;;;;;;;9.21;100.00;97256.44;5053183;27;20202;-81
2023/04/01 03:28:45;;;;;;;6.17;1.50;;;;;;;9.27;100.00;97269.13;5048586;28;20213;-81
2023/04/01 03:31:14;;;;;;;5.57;1.97;;;;;;;9.17;100.00;97265.63;5048117;28;20231;-81
2023/04/01 03:33:43;;;;;;;4.43;1.57;;;;;;;9.20;100.00;97259.25;5047111;28;20209;-82
2023/04/01 03:36:13;;;;;;;3.63;1.67;;;;;;;9.15;100.00;97265.75;5048655;28;20278;-81
2023/04/01 03:38:42;;;;;;;2.90;1.63;;;;;;;9.18;100.00;97267.31;5040294;28;20201;-81
2023/04/01 03:41:15;;;;;;;3.80;1.90;;;;;;;9.19;100.00;97268.97;5049549;28;20277;-81
2023/04/01 03:43:44;;;;;;;5.07;1.93;;;;;;;9.17;100.00;97273.56;5049373;28;20257;-82
2023/04/01 03:46:17;;;;;;;5.53;1.80;;;;;;;9.15;100.00;97271.03;5046991;28;20246;-81
2023/04/01 03:48:49;;;;;;;4.83;2.00;;;;;;;9.20;100.00;97267.16;5049331;28;20691;-81
2023/04/01 03:51:17;;;;;;;3.80;1.60;;;;;;;9.21;100.00;97266.19;5051579;28;20185;-81
2023/04/01 03:53:46;;;;;;;5.90;1.83;;;;;;;9.15;100.00;97265.75;5047154;28;20205;-81
2023/04/01 03:56:15;;;;;;;5.27;1.67;;;;;;;9.10;100.00;97264.50;4983413;28;20206;-81
2023/04/01 03:58:43;;;;;;;4.63;1.50;;;;;;;9.15;100.00;97262.28;4980763;28;20248;-80
2023/04/01 04:01:16;;;;;;;3.83;1.70;;;;;;;9.03;100.00;97264.19;4998398;28;20203;-82
2023/04/01 04:03:45;;;;;;;5.50;1.83;;;;;;;9.06;100.00;97268.34;4985927;28;20191;-82
2023/04/01 04:06:15;;;;;;;3.13;1.70;;;;;;;9.02;100.00;97262.53;4983092;28;20245;-81
2023/04/01 04:08:44;;;;;;;6.37;2.00;;;;;;;9.03;100.00;97266.84;4986886;28;20219;-81
2023/04/01 04:11:12;;;;;;;3.50;1.67;;;;;;;9.06;100.00;97266.56;4998385;28;20211;-81
2023/04/01 04:13:44;;;;;;;5.33;1.93;;;;;;;9.08;100.00;97267.28;5047306;28;20201;-81
2023/04/01 04:16:12;;;;;;;5.80;1.67;;;;;;;9.06;100.00;97263.09;5028947;28;20620;-81
2023/04/01 04:18:41;;;;;;;7.30;1.53;;;;;;;9.12;100.00;97271.31;5049081;28;20189;-81
2023/04/01 04:21:14;;;;;;;5.87;1.50;;;;;;;9.16;100.00;97270.06;5048788;28;20197;-81
2023/04/01 04:23:42;;;;;;;3.67;1.50;;;;;;;9.13;100.00;97264.22;5049126;28;20197;-81
2023/04/01 04:26:12;;;;;;;8.40;1.70;;;;;;;9.08;100.00;97259.34;5088708;28;20203;-81
2023/04/01 04:28:43;;;;;;;5.70;1.60;;;;;;;9.10;100.00;97257.41;5090208;28;20230;-81
2023/04/01 04:31:12;;;;;;;6.33;1.50;;;;;;;9.10;100.00;97270.63;5039960;28;20191;-82
2023/04/01 04:33:41;;;;;;;4.63;1.60;;;;;;;9.17;100.00;97266.47;5091444;28;20191;-81
2023/04/01 04:36:10;;;;;;;3.97;1.50;;;;;;;9.14;100.00;97263.25;5088040;28;20210;-81
2023/04/01 04:38:39;;;;;;;3.97;1.73;;;;;;;9.00;100.00;97263.66;5088192;28;20327;-81
2023/04/01 04:41:11;;;;;;;4.97;1.70;;;;;;;9.07;100.00;97268.25;5093904;28;20227;-81
2023/04/01 04:43:40;;;;;;;7.80;1.80;;;;;;;9.02;100.00;97266.97;5093949;28;20192;-81
2023/04/01 04:46:11;;;;;;;4.17;1.47;;;;;;;9.03;100.00;97273.91;5092492;28;20204;-81
2023/04/01 04:48:39;;;;;;;3.73;1.47;;;;;;;8.93;100.00;97275.69;5095327;28;20795;-81
2023/04/01 04:51:08;;;;;;;4.73;1.47;;;;;;;9.02;100.00;97269.63;5065227;28;20197;-81
2023/04/01 04:53:36;;;;;;;3.77;1.30;;;;;;;9.02;100.00;97273.09;5047351;28;20250;-82
2023/04/01 04:56:05;;;;;;;6.10;1.63;;;;;;;9.03;100.00;97276.56;5055364;27;20225;-81
2023/04/01 04:58:33;;;;;;;4.07;1.30;;;;;;;8.90;100.00;97282.09;5051940;28;20220;-81
2023/04/01 05:01:08;;;;;;;6.33;1.60;;;;;;;9.02;100.00;97274.91;5042346;28;20290;-81
2023/04/01 05:03:38;;;;;;;4.10;1.20;;;;;;;9.04;100.00;97280.88;5066123;27;20197;-82
2023/04/01 05:06:08;;;;;;;5.07;2.63;;;;;;;8.98;100.00;97281.44;5047158;28;20279;-82
2023/04/01 05:08:38;;;;;;;6.73;2.93;;;;;;;8.86;100.00;97276.22;5050900;28;20264;-81
2023/04/01 05:11:10;;;;;;;10.90;2.27;;;;;;;8.91;100.00;97282.94;5066550;27;20185;-81
2023/04/01 05:13:40;;;;;;;6.37;1.90;;;;;;;8.85;100.00;97289.56;5052421;28;20249;-81
2023/04/01 05:16:09;;;;;;;3.77;1.90;;;;;;;8.92;100.00;97293.34;5057445;27;20246;-81
2023/04/01 05:18:40;;;;;;;3.87;1.30;;;;;;;8.97;100.00;97301.69;5048158;28;20189;-82
2023/04/01 05:21:09;;;;;;;3.67;1.80;;;;;;;8.94;100.00;97286.13;5116699;28;20198;-83
2023/04/01 05:23:38;;;;;;;5.73;1.70;;;;;;;8.93;100.00;97299.47;5106677;28;20191;-82
2023/04/01 05:26:06;;;;;;;5.97;1.50;;;;;;;8.86;100.00;97285.94;5108167;28;20248;-82
2023/04/01 05:28:35;;;;;;;6.43;1.70;;;;;;;8.97;100.00;97290.28;5111002;28;20195;-81
2023/04/01 05:31:04;;;;;;;5.43;1.60;;;;;;;9.02;100.00;97290.75;5114485;28;20261;-81
2023/04/01 05:33:34;;;;;;;5.47;1.53;;;;;;;9.07;100.00;97294.66;5111242;28;20198;-81
2023/04/01 05:36:21;;;;;;;8.87;4.87;;;;;;;8.93;100.00;97291.53;5107089;28;20191;-81
2023/04/01 05:38:50;;;;;;;8.03;3.23;;;;;;;8.84;100.00;97299.28;5107420;28;20195;-82
2023/04/01 05:41:18;;;;;;;11.77;6.53;;;;;;;8.88;100.00;97302.50;5104168;28;20705;-82
2023/04/01 05:43:47;;;;;;;5.33;1.67;;;;;;;8.96;100.00;97297.38;5105757;28;20198;-82
2023/04/01 05:46:15;;;;;;;4.50;1.90;;;;;;;8.91;100.00;97290.84;5066108;28;20656;-82
2023/04/01 05:48:44;;;;;;;6.27;1.97;;;;;;;8.93;100.00;97302.09;5051504;28;20201;-82
2023/04/01 05:51:14;;;;;;;6.40;2.27;;;;;;;8.99;100.00;97291.84;5054981;27;20225;-82
2023/04/01 05:53:45;;;;;;;7.70;2.00;;;;;;;8.99;100.00;97301.56;5056705;27;20197;-84
2023/04/01 05:56:14;;;;;;;3.30;1.70;;;;;;;8.95;100.00;97302.78;5046803;28;20201;-83
2023/04/01 05:58:42;;;;;;;5.67;2.13;;;;;;;9.02;100.00;97307.41;5052302;28;20205;-83
2023/04/01 06:01:13;;;;;;;7.37;2.30;;;;;;;9.02;100.00;97306.59;5065754;27;20201;-82
2023/04/01 06:03:43;;;;;;;4.10;1.80;;;;;;;9.05;100.00;97299.22;5051396;28;20201;-82
2023/04/01 06:06:16;;;;;;;5.40;2.00;;;;;;;9.01;100.00;97297.81;5051206;28;20272;-82
2023/04/01 06:08:45;;;;;;;2.43;1.50;;;;;;;9.01;100.00;97305.75;5047241;28;20208;-82
2023/04/01 06:11:25;;;;;;;5.30;2.13;;;;;;;9.04;100.00;97302.81;5061883;27;20240;-81
2023/04/01 06:14:14;;;;;;;6.40;2.57;;;;;;;9.03;100.00;97302.97;5048481;28;20190;-81
2023/04/01 06:16:59;;;;;;;4.97;2.23;;;;;;;9.02;100.00;97306.59;5052894;28;20201;-81
2023/04/01 06:19:40;;;;;;;5.60;2.43;;;;;;;9.04;100.00;97304.63;4999075;28;20195;-82
2023/04/01 06:22:31;;;;;;;3.97;1.60;;;;;;;9.04;100.00;97308.09;5009366;28;20309;-82
2023/04/01 06:25:22;;;;;;;4.20;1.90;;;;;;;8.95;100.00;97314.19;5017583;28;20218;-81
2023/04/01 06:28:07;;;;;;;4.43;1.70;;;;;;;9.04;100.00;97304.63;5012143;28;20205;-82
2023/04/01 06:30:42;;;;;;;5.00;1.90;;;;;;;9.12;100.00;97310.91;5009122;28;20238;-81
2023/04/01 06:33:26;;;;;;;5.50;1.77;;;;;;;9.15;100.00;97302.72;5002561;28;20267;-82
2023/04/01 06:36:13;;;;;;;4.33;2.10;;;;;;;9.22;100.00;97304.81;4963762;28;20197;-82
2023/04/01 06:39:06;;;;;;;2.67;1.50;;;;;;;9.26;100.00;97308.84;5055933;27;20609;-81
2023/04/01 06:42:06;;;;;;;5.67;1.60;;;;;;;9.41;100.00;97305.69;5048947;28;20232;-81
2023/04/01 06:44:44;;;;;;;4.30;1.63;;;;;;;9.28;100.00;97302.50;5029209;28;20197;-81
2023/04/01 06:47:25;;;;;;;4.97;1.50;;;;;;;9.40;100.00;97304.03;5045279;28;20655;-81
2023/04/01 06:50:00;;;;;;;3.33;1.57;;;;;;;9.43;100.00;97302.91;5044478;28;20213;-81
2023/04/01 06:52:40;;;;;;;10.67;2.30;;;;;;;9.40;100.00;97297.91;5048166;28;20200;-81
2023/04/01 06:55:22;;;;;;;5.13;1.40;;;;;;;9.45;100.00;97306.25;5061688;27;20687;-81
2023/04/01 06:57:55;;;;;;;5.50;1.40;;;;;;;9.50;100.00;97303.22;5064860;27;20196;-81
2023/04/01 07:00:30;;;;;;;4.20;1.50;;;;;;;9.51;100.00;97299.59;5048669;28;20193;-81
2023/04/01 07:03:07;;;;;;;3.10;1.40;;;;;;;9.63;100.00;97295.84;5046882;28;20265;-81
2023/04/01 07:05:37;;;;;;;5.97;1.53;;;;;;;9.69;100.00;97297.94;5051765;28;20280;-81
2023/04/01 07:08:13;;;;;;;6.83;1.67;;;;;;;9.59;100.00;97300.59;5047206;28;20205;-82
2023/04/01 07:10:56;;;;;;;3.60;1.63;;;;;;;9.49;100.00;97305.03;5056433;27;20224;-81
2023/04/01 07:13:33;;;;;;;2.53;1.30;;;;;;;9.61;100.00;97292.50;5129894;27;20198;-81
2023/04/01 07:16:15;;;;;;;4.93;1.80;;;;;;;9.71;100.00;97299.47;5132142;27;20276;-82
2023/04/01 07:18:54;;;;;;;3.83;1.43;;;;;;;9.63;100.00;97295.84;5130791;27;20225;-82
2023/04/01 07:21:30;;;;;;;3.70;1.30;;;;;;;9.76;100.00;97288.50;5129307;27;20202;-82
2023/04/01 07:24:07;;;;;;;4.57;1.20;;;;;;;9.60;100.00;97296.13;5128035;27;20237;-82
2023/04/01 07:26:35;;;;;;;2.60;1.30;;;;;;;9.65;100.00;97292.13;5080689;27;20247;-82
2023/04/01 07:29:12;;;;;;;3.43;1.53;;;;;;;9.62;100.00;97300.28;5065144;28;20257;-82
2023/04/01 07:31:56;;;;;;;6.63;1.50;;;;;;;9.73;100.00;97300.16;5029737;28;20217;-82
2023/04/01 07:34:27;;;;;;;5.30;1.40;;;;;;;9.77;100.00;97299.91;5013151;28;20195;-82
2023/04/01 07:37:03;;;;;;;4.90;1.60;;;;;;;9.84;100.00;97306.28;5017105;28;20186;-81
2023/04/01 07:39:44;;;;;;;5.23;1.40;;;;;;;9.68;100.00;97307.69;5012252;28;20247;-82
2023/04/01 07:42:21;;;;;;;3.53;1.30;;;;;;;9.69;100.00;97301.41;5007876;28;20209;-81
2023/04/01 07:44:59;;;;;;;6.23;1.40;;;;;;;9.69;100.00;97308.53;5001005;28;20252;-82
2023/04/01 07:47:53;;;;;;;3.50;1.23;;;;;;;9.80;100.00;97318.13;5040773;28;20237;-82
2023/04/01 07:50:27;;;;;;;2.27;1.40;;;;;;;9.86;100.00;97312.28;5049573;28;20378;-82
2023/04/01 07:53:09;;;;;;;2.53;1.10;;;;;;;9.93;100.00;97306.28;5048227;28;20228;-82
2023/04/01 07:55:44;;;;;;;3.27;1.10;;;;;;;9.95;100.00;97309.66;5046430;28;20193;-81
2023/04/01 07:58:21;;;;;;;3.17;1.40;;;;;;;10.07;100.00;97306.84;5064087;27;20207;-81
2023/04/01 08:01:02;;;;;;;1.83;0.90;;;;;;;10.01;100.00;97316.16;5075002;28;20192;-83
2023/04/01 08:03:44;;;;;;;2.17;1.20;;;;;;;10.10;100.00;97320.63;5071922;28;20759;-82
2023/04/01 08:06:20;;;;;;;4.23;1.07;;;;;;;10.07;100.00;97310.31;5057646;28;20199;-83
2023/04/01 08:08:59;;;;;;;3.43;1.23;;;;;;;10.00;100.00;97314.50;5068370;28;20237;-82
2023/04/01 08:11:42;;;;;;;4.57;1.03;;;;;;;10.15;100.00;97304.34;5063699;28;20251;-82
2023/04/01 08:14:19;;;;;;;3.93;1.10;;;;;;;10.13;100.00;97317.69;4994852;28;20191;-82
2023/04/01 08:17:00;;;;;;;2.33;1.13;;;;;;;10.17;100.00;97318.25;4989666;28;20202;-82
2023/04/01 08:19:41;;;;;;;2.00;1.17;;;;;;;10.26;100.00;97318.28;4992653;28;20198;-82
2023/04/01 08:22:17;;;;;;;2.43;0.90;;;;;;;10.02;100.00;97323.13;4988936;28;20409;-82
2023/04/01 08:24:49;;;;;;;1.37;1.10;;;;;;;10.16;100.00;97322.72;4990299;28;20206;-82
2023/04/01 08:27:24;;;;;;;3.00;1.10;;;;;;;10.14;100.00;97331.78;4989563;28;20203;-82
2023/04/01 08:30:00;;;;;;;6.27;1.33;;;;;;;9.98;100.00;97334.97;4993282;28;20241;-82
2023/04/01 08:32:37;;;;;;;5.67;1.00;;;;;;;10.13;100.00;97330.06;5023399;28;20212;-81
2023/04/01 08:35:15;;;;;;;3.07;1.07;;;;;;;10.15;100.00;97338.72;5051423;28;20193;-81
2023/04/01 08:37:46;;;;;;;2.37;0.90;;;;;;;10.18;100.00;97341.09;5049705;28;20247;-81
2023/04/01 08:40:34;;;;;;;1.17;0.90;;;;;;;10.24;100.00;97322.88;5014501;28;20334;-82
2023/04/01 08:43:16;;;;;;;1.80;1.10;;;;;;;10.21;100.00;97320.47;5005684;28;20248;-82
2023/04/01 08:46:25;;;;;;;1.67;0.90;;;;;;;10.07;100.00;97331.47;5017189;28;20232;-82
2023/04/01 08:49:06;;;;;;;3.30;0.90;;;;;;;10.15;100.00;97330.78;5004578;28;20213;-81
2023/04/01 08:52:09;;;;;;;1.40;0.70;;;;;;;10.30;100.00;97326.75;5010500;28;20214;-82
2023/04/01 08:54:57;;;;;;;0.93;0.60;;;;;;;10.12;100.00;97329.25;5005035;28;20225;-83
2023/04/01 08:57:41;;;;;;;1.27;0.70;;;;;;;10.26;100.00;97339.44;5030720;28;20202;-82
2023/04/01 09:00:21;;;;;;;1.27;0.70;;;;;;;10.40;100.00;97339.97;5024742;28;20332;-82
2023/04/01 09:03:13;;;;;;;1.27;0.50;;;;;;;10.42;100.00;97333.56;5030513;28;20198;-82
2023/04/01 09:06:11;;;;;;;1.10;0.80;;;;;;;10.40;100.00;97339.97;5033511;28;20224;-82
2023/04/01 09:08:57;;;;;;;1.93;0.50;;;;;;;10.44;100.00;97338.72;5031998;28;20231;-82
2023/04/01 09:11:41;;;;;;;1.07;0.43;;;;;;;10.34;100.00;97348.50;5027426;28;20245;-81
2023/04/01 09:14:45;;;;;;;1.20;0.70;;;;;;;10.46;100.00;97339.41;5030723;28;20456;-81
2023/04/01 09:17:41;;;;;;;1.00;0.77;;;;;;;10.53;100.00;97345.81;5034367;28;20207;-81
2023/04/01 09:20:36;;;;;;;0.87;0.57;;;;;;;10.49;100.00;97344.41;5093462;28;20282;-82
2023/04/01 09:23:43;;;;;;;0.43;0.43;;;;;;;10.57;100.00;97341.88;5046128;28;20197;-81
2023/04/01 09:26:38;;;;;;;0.90;0.50;;;;;;;10.48;100.00;97340.94;5088748;28;20300;-82
2023/04/01 09:29:21;;;;;;;1.20;0.50;;;;;;;10.71;100.00;97345.88;5056739;28;20205;-82
2023/04/01 09:32:26;;;;;;;2.27;0.60;;;;;;;10.59;100.00;97343.41;5007387;28;20305;-81
2023/04/01 09:34:58;;;;;;;1.07;0.50;;;;;;;10.55;100.00;97343.84;5009761;28;20218;-81
2023/04/01 09:37:48;;;;;;;0.80;0.70;;;;;;;10.65;100.00;97357.06;5003042;28;20225;-80
2023/04/01 09:40:19;;;;;;;0.60;0.43;;;;;;;10.55;100.00;97347.34;5007470;28;20243;-81
2023/04/01 09:43:07;;;;;;;1.00;0.40;;;;;;;10.69;100.00;97346.03;5013118;28;20202;-82
2023/04/01 09:45:47;;;;;;;0.60;0.40;;;;;;;10.70;100.00;97350.34;5007691;28;20203;-81
2023/04/01 09:48:31;;;;;;;0.53;0.40;;;;;;;10.79;100.00;97346.00;5010427;28;20229;-81
2023/04/01 09:51:14;;;;;;;0.80;0.43;;;;;;;10.65;100.00;97347.31;5047269;28;20258;-80
2023/04/01 09:53:56;;;;;;;1.63;0.53;;;;;;;10.57;100.00;97344.53;5050192;28;20200;-80
2023/04/01 09:57:04;;;;;;;0.67;0.47;;;;;;;10.64;100.00;97356.22;5114326;27;20297;-81
2023/04/01 09:59:58;;;;;;;0.50;0.50;;;;;;;10.70;100.00;97344.22;5039640;28;20197;-81
2023/04/01 10:02:59;;;;;;;1.37;1.20;;;;;;;10.69;100.00;97345.19;5050800;28;20201;-81
2023/04/01 10:06:12;;;;;;;2.40;2.00;;;;;;;10.76;100.00;97343.66;5057105;27;20205;-80
2023/04/01 10:09:22;;;;;;;1.67;1.57;;;;;;;10.74;100.00;97350.91;5048907;28;20272;-80
2023/04/01 10:12:23;;;;;;;2.40;2.20;;;;;;;10.75;100.00;97336.69;5066830;27;20328;-80
2023/04/01 10:15:29;;;;;;;9.53;7.67;;;;;;;10.69;100.00;97340.72;5028954;28;20189;-81
2023/04/01 10:18:40;;;;;;;0.90;0.50;;;;;;;10.89;100.00;97346.81;5023423;28;20190;-80
2023/04/01 10:21:50;;;;;;;2.83;2.17;;;;;;;10.73;100.00;97357.19;5023979;28;20254;-81
2023/04/01 10:24:48;;;;;;;3.27;2.97;;;;;;;10.79;100.00;97348.66;5019275;28;20209;-79
2023/04/01 10:27:47;;;;;;;2.97;1.93;;;;;;;10.81;100.00;97342.25;5030361;28;20194;-80
2023/04/01 10:30:52;;;;;;;0.50;0.50;;;;;;;10.92;100.00;97351.84;5023701;28;20212;-80
2023/04/01 10:34:11;;;;;;;3.20;2.90;;;;;;;10.74;100.00;97356.22;5043257;28;20216;-83
2023/04/01 10:36:53;;;;;;;0.70;0.50;;;;;;;10.68;100.00;97359.41;5012080;28;20209;-80
2023/04/01 10:39:56;;;;;;;1.13;0.50;;;;;;;10.52;100.00;97362.69;5002005;28;20198;-81
2023/04/01 10:42:50;;;;;;;1.37;0.77;;;;;;;10.56;100.00;97361.41;4967712;28;20198;-81
2023/04/01 10:46:07;;;;;;;0.40;0.40;;;;;;;10.71;100.00;97364.41;4956213;28;20199;-81
2023/04/01 10:49:03;;;;;;;1.00;0.70;;;;;;;10.72;100.00;97360.81;5000723;28;20293;-81
2023/04/01 10:51:57;;;;;;;1.20;0.73;;;;;;;10.75;100.00;97365.81;5005911;28;20247;-81
2023/04/01 10:54:46;;;;;;;1.70;1.10;;;;;;;10.82;100.00;97366.91;5018891;28;20205;-81
2023/04/01 10:57:55;;;;;;;1.90;1.57;;;;;;;10.88;100.00;97368.97;5087531;28;20199;-81
2023/04/01 11:00:50;;;;;;;2.73;1.13;;;;;;;11.07;100.00;97370.72;5062981;28;20234;-81
2023/04/01 11:04:22;;;;;;;3.33;0.97;;;;;;;10.92;100.00;97365.06;5085338;28;20215;-81
2023/04/01 11:07:20;;;;;;;0.67;0.50;;;;;;;11.04;100.00;97369.22;5088814;28;20195;-81
2023/04/01 11:10:34;;;;;;;1.00;0.80;;;;;;;10.89;100.00;97371.47;5083508;28;20253;-81
2023/04/01 11:13:34;;;;;;;1.73;1.30;;;;;;;10.91;100.00;97374.00;5089771;28;20219;-80
2023/04/01 11:16:38;;;;;;;1.20;0.80;;;;;;;10.88;100.00;97371.63;5088585;28;20240;-80
2023/04/01 11:19:35;;;;;;;1.60;1.10;;;;;;;10.80;100.00;97379.44;5091238;28;20199;-80
2023/04/01 11:22:36;;;;;;;1.60;0.80;;;;;;;10.82;100.00;97388.09;5064067;28;20192;-81
2023/04/01 11:25:26;;;;;;;0.73;0.73;;;;;;;10.81;100.00;97389.91;5108316;28;20202;-81
2023/04/01 11:28:22;;;;;;;1.13;0.97;;;;;;;10.91;100.00;97378.47;5026861;28;20209;-81
2023/04/01 11:31:18;;;;;;;0.97;0.60;;;;;;;10.88;100.00;97379.56;5028449;28;20242;-80
2023/04/01 11:33:55;;;;;;;0.70;0.60;;;;;;;10.99;100.00;97381.19;5025380;28;20256;-80
2023/04/01 11:36:35;;;;;;;0.77;0.77;;;;;;;11.01;100.00;97380.09;5028431;28;20284;-80
2023/04/01 11:39:21;;;;;;;1.20;0.80;;;;;;;10.93;100.00;97381.81;5025186;28;20208;-80
2023/04/01 11:42:06;;;;;;;1.33;0.50;;;;;;;10.84;100.00;97394.91;5024546;28;20225;-80
2023/04/01 11:44:41;;;;;;;0.40;0.40;;;;;;;10.85;100.00;97398.41;5025048;28;20248;-80
2023/04/01 11:47:25;;;;;;;0.63;0.60;;;;;;;10.87;100.00;97404.38;5099766;28;20206;-80
2023/04/01 11:50:17;;;;;;;0.97;0.60;;;;;;;10.91;100.00;97399.66;5069366;28;20228;-80
2023/04/01 11:53:01;;;;;;;0.93;0.70;;;;;;;10.84;100.00;97408.16;5046686;28;20221;-80
2023/04/01 11:55:52;;;;;;;2.20;0.63;;;;;;;10.81;100.00;97404.97;5028275;28;20667;-80
2023/04/01 12:01:52;;;;;;;0.70;0.60;;;;;;;10.95;100.00;97408.97;5151955;27;20628;-80
2023/04/01 12:05:12;;;;;;;1.17;0.70;;;;;;;10.89;100.00;97416.50;5131113;28;20254;-81
2023/04/01 12:07:55;;;;;;;1.83;1.23;;;;;;;10.90;100.00;97417.31;5123380;28;20270;-81
2023/04/01 12:10:34;;;;;;;2.03;0.90;;;;;;;10.92;100.00;97427.81;5120927;28;20223;-81
2023/04/01 12:13:13;;;;;;;2.60;1.30;;;;;;;10.81;100.00;97434.94;5131019;28;20202;-81
2023/04/01 12:15:56;;;;;;;1.43;1.00;;;;;;;10.93;100.00;97432.97;5125195;28;20583;-81
2023/04/01 12:18:33;;;;;;;2.20;0.80;;;;;;;11.10;100.00;97440.16;5126535;28;20217;-81
2023/04/01 12:21:10;;;;;;;2.73;0.93;;;;;;;11.15;100.00;97437.91;5125391;28;20214;-81
2023/04/01 12:23:57;;;;;;;1.43;0.90;;;;;;;11.05;100.00;97442.41;5122940;28;20182;-81
2023/04/01 12:26:37;;;;;;;1.47;0.90;;;;;;;11.02;100.00;97448.00;5131939;28;20193;-82
2023/04/01 12:29:22;;;;;;;0.60;0.60;;;;;;;10.83;100.00;97450.69;5131856;28;20190;-81
2023/04/01 12:32:00;;;;;;;2.40;1.60;;;;;;;10.78;100.00;97450.25;5122896;28;20198;-81